Terminal Aerodrome Forecast
Issued by NWS

Home | Current Version | Previous Version | Text Only | Print | Product List | Glossary On
Versions: 1 2 3 4 5 6 7 8 9 10 11 12 13 14 15 16 17 18
417
FTAK31 PAJN 141126
TAFAKT
TAF
PAKT 141126Z 1412/1512 14013KT P6SM -SHRA OVC025
      TEMPO 1412/1416 OVC020
     FM141800 15010KT 5SM -SHRA BR SCT015 OVC025
     FM142100 14015G25KT 3SM -SHRA BR BKN015 OVC025
     FM150000 VRB06KT 3SM -SHRA BR OVC015
     FM150300 31015KT 4SM -SHRA BR BKN015 OVC025
     FM150900 13010KT 6SM -SHRA BR SCT015 BKN030 OVC040
      AMD LTD TO CLD VIS AND WIND 1412/1415=

USA.gov is the U.S. government's official web portal to all federal, state and local government web resources and services.